首页
METAR-TAF:

METAR-TAF

机场 :

科羅拉多大峽谷, 亞利桑那州, 美国

纬度: 35-56-46N, 经度: 112-09-17W, 海拔: 2014米

当前天气观测

该预报发布于47分钟前的18:54 UTC
风速7节,风向东转东南
温度 19°C
湿度 15%
气压 1026 hPa
能見度: 16.1公里
天空无云

METAR: KGCN 151854Z 12007KT 10SM CLR 19/M08 A3030 RMK AO2 SLP204 T01941083

时间: 12:41 (19:41 UTC)

预报

该预报发布于2小时和21分钟前的17:20 UTC
预报有效从15日的 18点(UTC)到 16日的 18点(UTC)
风速5节,风向多变
能見度: 10公里
天空无云
从 16日的 0300点(UTC)
风速6节,风向
能見度: 10公里
天空无云
从 16日的 1600点(UTC)
风速4节,风向多变
能見度: 10公里
天空无云

TAF: KGCN 151720Z 1518/1618 VRB05KT P6SM SKC FM160300 09006KT P6SM SKC FM161600 VRB04KT P6SM SKC

超过4000个机场的气象观测和天气预报(METAR&TAF报告)。

可查询的气象台以黄色和红色小点在地图上表示。

将鼠标移到小点上方,可查看气象台名称。

然后点击查看天气观测和预报。

如需切换地图:点击带黑十字的绿色按钮放大地图;点击带横线的绿色按钮缩小地图;或者点击绿色箭头查看邻近地区的地图。


METAR-TAF: